This is the latest recevied weather packets stored in our database for station/object 9W2IJB-3. If no packets are shown the sender has not sent any weather packets the latest 10 day(s).
| Time | Temp. | Humidity | Pressure | Rain* | Wind** | Luminosity | Snow |
|---|---|---|---|---|---|---|---|
| 1778035127 | 28.33° C | 69% | 1021.8 hPa | - | - | - | - |
| 1778035092 | 28.33° C | 69% | 1021.8 hPa | - | - | - | - |
| 1778033893 | 28.89° C | 69% | 1021.8 hPa | - | - | - | - |
| 1778032692 | 28.33° C | 69% | 1021.6 hPa | - | - | - | - |
| 1778031535 | 27.78° C | 71% | 1021.5 hPa | - | - | - | - |
| 1778031492 | 27.78° C | 71% | 1021.5 hPa | - | - | - | - |
| 1778030292 | 27.78° C | 72% | 1021.3 hPa | - | - | - | - |
| 1778029138 | 27.22° C | 72% | 1021.1 hPa | - | - | - | - |
| 1778029092 | 27.22° C | 72% | 1021.1 hPa | - | - | - | - |
| 1778027930 | 26.67° C | 73% | 1020.9 hPa | - | - | - | - |
| 1778027892 | 26.67° C | 73% | 1020.9 hPa | - | - | - | - |
| 1778026692 | 26.67° C | 73% | 1020.7 hPa | - | - | - | - |
| 1778025492 | 26.11° C | 74% | 1020.3 hPa | - | - | - | - |
| 1778024327 | 26.11° C | 75% | 1020.2 hPa | - | - | - | - |
| 1778024292 | 26.11° C | 75% | 1020.2 hPa | - | - | - | - |
| 1778023092 | 26.11° C | 75% | 1020.1 hPa | - | - | - | - |
| 1778021892 | 26.11° C | 76% | 1019.9 hPa | - | - | - | - |
| 1778020730 | 26.11° C | 76% | 1020 hPa | - | - | - | - |
| 1778020691 | 26.11° C | 76% | 1020 hPa | - | - | - | - |
| 1778019491 | 26.11° C | 75% | 1019.6 hPa | - | - | - | - |
| 1778018291 | 26.11° C | 76% | 1019.5 hPa | - | - | - | - |
| 1778017091 | 25.56° C | 75% | 1019.3 hPa | - | - | - | - |
| 1778015891 | 25.56° C | 75% | 1019.3 hPa | - | - | - | - |
| 1778014691 | 26.11° C | 75% | 1019.4 hPa | - | - | - | - |
| 1778013491 | 26.11° C | 74% | 1019.5 hPa | - | - | - | - |
* Rain since midnight (hover to see other rain measurements)
** Current wind speed in m/s (hover to see current wind gust speed)